createdAt,value
2023-03-21T00:01:37.912Z,10.20
2023-03-21T00:04:04.586Z,10.20
2023-03-21T00:06:32.449Z,10.30
2023-03-21T00:08:59.024Z,10.30
2023-03-21T00:11:26.070Z,10.30
2023-03-21T00:13:53.416Z,10.30
2023-03-21T00:16:22.675Z,10.30
2023-03-21T00:18:52.853Z,10.30
2023-03-21T00:21:43.991Z,10.30
2023-03-21T00:24:06.549Z,10.30
2023-03-21T00:26:33.451Z,10.30
2023-03-21T00:29:00.220Z,10.30
2023-03-21T00:31:27.196Z,10.30
2023-03-21T00:33:53.798Z,10.30
2023-03-21T00:36:21.703Z,10.30
2023-03-21T00:38:48.373Z,10.30
2023-03-21T00:41:23.675Z,10.30
2023-03-21T00:43:55.813Z,10.30
2023-03-21T00:46:23.498Z,10.30
2023-03-21T00:48:52.046Z,10.30
2023-03-21T00:51:21.342Z,10.30
2023-03-21T00:53:48.005Z,10.30
2023-03-21T00:56:15.022Z,10.30
2023-03-21T00:58:41.673Z,10.20
2023-03-21T01:01:09.474Z,10.20
2023-03-21T01:03:42.852Z,10.20
2023-03-21T01:06:13.453Z,10.20
2023-03-21T01:08:55.283Z,10.20
2023-03-21T01:11:22.623Z,10.20
2023-03-21T01:14:07.271Z,10.20
2023-03-21T01:16:36.308Z,10.20
2023-03-21T01:19:05.150Z,10.20
2023-03-21T01:21:33.836Z,10.20
2023-03-21T01:24:01.649Z,10.20
2023-03-21T01:26:28.517Z,10.20
2023-03-21T01:28:55.195Z,10.20
2023-03-21T01:31:21.851Z,10.20
2023-03-21T01:33:48.473Z,10.10
2023-03-21T01:36:16.739Z,10.10
2023-03-21T01:38:43.655Z,10.20
2023-03-21T01:41:19.436Z,10.20
2023-03-21T01:43:47.594Z,10.20
2023-03-21T01:46:14.423Z,10.20
2023-03-21T01:49:04.022Z,10.20
2023-03-21T01:51:30.784Z,10.20
2023-03-21T01:53:58.123Z,10.20
2023-03-21T01:56:26.905Z,10.10
2023-03-21T01:59:03.002Z,10.10
2023-03-21T02:01:50.148Z,10.10
2023-03-21T02:04:22.001Z,10.10
2023-03-21T02:06:52.121Z,10.10
2023-03-21T02:09:36.513Z,10.10
2023-03-21T02:12:07.119Z,10.10
2023-03-21T02:14:34.638Z,10.00
2023-03-21T02:17:08.026Z,10.00
2023-03-21T02:19:47.592Z,10.00
2023-03-21T02:22:19.697Z,10.00
2023-03-21T02:24:54.583Z,10.00
2023-03-21T02:27:27.655Z,10.00
2023-03-21T02:29:58.837Z,10.00
2023-03-21T02:32:37.158Z,10.00
2023-03-21T02:35:06.455Z,10.00
2023-03-21T02:37:38.352Z,9.90
2023-03-21T02:40:11.958Z,9.90
2023-03-21T02:42:38.599Z,9.90
2023-03-21T02:45:05.221Z,9.90
2023-03-21T02:47:35.937Z,9.90
2023-03-21T02:50:04.972Z,9.90
2023-03-21T02:52:39.130Z,9.90
2023-03-21T02:55:13.540Z,9.90
2023-03-21T02:58:12.712Z,9.90
2023-03-21T03:00:44.842Z,9.90
2023-03-21T03:03:24.773Z,9.90
2023-03-21T03:05:59.971Z,9.90
2023-03-21T03:08:37.614Z,9.90
2023-03-21T03:11:07.669Z,9.90
2023-03-21T03:13:34.254Z,9.90
2023-03-21T03:16:01.987Z,9.90
2023-03-21T03:18:28.683Z,9.90
2023-03-21T03:20:55.544Z,9.90
2023-03-21T03:23:23.690Z,9.90
2023-03-21T03:25:50.426Z,9.90
2023-03-21T03:28:17.412Z,9.90
2023-03-21T03:30:54.324Z,9.90
2023-03-21T03:33:30.372Z,9.90
2023-03-21T03:36:04.895Z,9.90
2023-03-21T03:38:35.064Z,9.80
2023-03-21T03:41:01.854Z,9.80
2023-03-21T03:43:37.663Z,9.80
2023-03-21T03:46:04.464Z,9.70
2023-03-21T03:48:31.880Z,9.70
2023-03-21T03:51:02.479Z,9.70
2023-03-21T03:53:45.614Z,9.60
2023-03-21T03:56:12.430Z,9.60
2023-03-21T03:58:45.722Z,9.60
2023-03-21T04:01:15.949Z,9.60
2023-03-21T04:03:50.425Z,9.60
2023-03-21T04:06:18.012Z,9.50
2023-03-21T04:08:44.904Z,9.50
2023-03-21T04:11:11.794Z,9.50
2023-03-21T04:13:41.138Z,9.50
2023-03-21T04:16:11.472Z,9.50
2023-03-21T04:18:39.176Z,9.60
2023-03-21T04:21:07.612Z,9.60
2023-03-21T04:23:35.722Z,9.60
2023-03-21T04:26:02.479Z,9.60
2023-03-21T04:28:36.343Z,9.60
2023-03-21T04:31:27.257Z,9.60
2023-03-21T04:34:12.217Z,9.60
2023-03-21T04:36:46.593Z,9.50
2023-03-21T04:39:13.861Z,9.50
2023-03-21T04:41:42.438Z,9.50
2023-03-21T04:44:09.076Z,9.50
2023-03-21T04:46:36.853Z,9.50
2023-03-21T04:49:03.799Z,9.50
2023-03-21T04:51:30.562Z,9.50
2023-03-21T04:54:00.207Z,9.50
2023-03-21T04:56:32.083Z,9.50
2023-03-21T04:58:58.958Z,9.40
2023-03-21T05:01:25.973Z,9.40
2023-03-21T05:03:52.673Z,9.40
2023-03-21T05:06:20.530Z,9.40
2023-03-21T05:08:49.019Z,9.40
2023-03-21T05:11:16.378Z,9.40
2023-03-21T05:13:43.000Z,9.40
2023-03-21T05:16:11.582Z,9.40
2023-03-21T05:18:38.735Z,9.40
2023-03-21T05:21:12.414Z,9.40
2023-03-21T05:23:40.474Z,9.40
2023-03-21T05:26:08.207Z,9.40
2023-03-21T05:28:41.705Z,9.40
2023-03-21T05:31:09.134Z,9.40
2023-03-21T05:33:36.068Z,9.30
2023-03-21T05:36:03.002Z,9.30
2023-03-21T05:38:31.795Z,9.20
2023-03-21T05:40:59.135Z,9.20
2023-03-21T05:43:26.018Z,9.20
2023-03-21T05:45:53.136Z,9.10
2023-03-21T05:48:19.886Z,9.10
2023-03-21T05:50:59.856Z,9.10
2023-03-21T05:53:26.656Z,9.10
2023-03-21T05:55:54.541Z,9.00
2023-03-21T05:58:39.760Z,9.10
2023-03-21T06:01:06.417Z,9.10
2023-03-21T06:03:35.499Z,9.10
2023-03-21T06:06:07.009Z,9.10
2023-03-21T06:08:38.548Z,9.10
2023-03-21T06:11:05.549Z,9.10
2023-03-21T06:13:34.490Z,9.10
2023-03-21T06:16:20.635Z,9.10
2023-03-21T06:18:47.304Z,9.10
2023-03-21T06:21:28.297Z,9.20
2023-03-21T06:23:54.922Z,9.20
2023-03-21T06:26:23.403Z,9.20
2023-03-21T06:28:51.842Z,9.20
2023-03-21T06:31:18.482Z,9.20
2023-03-21T06:33:45.544Z,9.20
2023-03-21T06:36:12.292Z,9.30
2023-03-21T06:38:39.226Z,9.30
2023-03-21T06:41:06.083Z,9.30
2023-03-21T06:43:39.583Z,9.30
2023-03-21T06:46:06.378Z,9.30
2023-03-21T06:48:33.751Z,9.30
2023-03-21T06:51:00.678Z,9.30
2023-03-21T06:53:29.991Z,9.30
2023-03-21T06:56:15.464Z,9.30
2023-03-21T06:58:43.926Z,9.30
2023-03-21T07:01:20.008Z,9.40
2023-03-21T07:03:59.580Z,9.40
2023-03-21T07:06:28.996Z,9.40
2023-03-21T07:08:55.800Z,9.40
2023-03-21T07:11:23.739Z,9.50
2023-03-21T07:13:50.530Z,9.50
2023-03-21T07:16:17.689Z,9.60
2023-03-21T07:18:44.342Z,9.60
2023-03-21T07:21:11.905Z,9.70
2023-03-21T07:23:39.663Z,9.70
2023-03-21T07:26:08.556Z,9.70
2023-03-21T07:28:35.302Z,9.70
2023-03-21T07:31:02.597Z,9.80
2023-03-21T07:33:29.214Z,9.80
2023-03-21T07:36:00.557Z,9.80
2023-03-21T07:38:27.239Z,9.80
2023-03-21T07:40:53.836Z,9.80
2023-03-21T07:43:20.754Z,9.80
2023-03-21T07:45:54.193Z,9.80
2023-03-21T07:48:21.726Z,9.80
2023-03-21T07:50:48.343Z,9.80
2023-03-21T07:53:14.953Z,9.80
2023-03-21T07:55:41.698Z,9.80
2023-03-21T07:58:08.269Z,9.90
2023-03-21T08:00:34.957Z,9.90
2023-03-21T08:03:01.624Z,10.00
2023-03-21T08:05:28.237Z,10.00
2023-03-21T08:07:55.106Z,10.00
2023-03-21T08:10:21.684Z,10.00
2023-03-21T08:12:48.258Z,9.90
2023-03-21T08:15:14.890Z,9.90
2023-03-21T08:18:03.020Z,9.90
2023-03-21T08:20:29.684Z,9.90
2023-03-21T08:22:56.375Z,10.00
2023-03-21T08:25:23.066Z,10.10
2023-03-21T08:27:51.854Z,10.20
2023-03-21T08:30:18.458Z,10.30
2023-03-21T08:32:45.110Z,10.30
2023-03-21T08:35:11.804Z,10.30
2023-03-21T08:37:39.530Z,10.30
2023-03-21T08:40:08.570Z,10.40
2023-03-21T08:42:35.575Z,10.50
2023-03-21T08:45:04.994Z,10.50
2023-03-21T08:47:50.888Z,10.50
2023-03-21T08:50:17.577Z,10.50
2023-03-21T08:52:49.666Z,10.60
2023-03-21T08:55:16.346Z,10.60
2023-03-21T08:57:43.167Z,10.60
2023-03-21T09:00:17.105Z,10.60
2023-03-21T09:02:43.734Z,10.70
2023-03-21T09:05:11.954Z,10.70
2023-03-21T09:07:39.327Z,10.80
2023-03-21T09:10:20.264Z,10.90
2023-03-21T09:12:48.003Z,11.00
2023-03-21T09:15:14.660Z,11.10
2023-03-21T09:17:43.266Z,11.10
2023-03-21T09:20:11.458Z,11.20
2023-03-21T09:22:39.308Z,11.40
2023-03-21T09:25:08.307Z,11.70
2023-03-21T09:27:36.945Z,11.90
2023-03-21T09:30:07.638Z,12.00
2023-03-21T09:32:37.576Z,12.20
2023-03-21T09:35:05.831Z,12.40
2023-03-21T09:37:51.231Z,12.70
2023-03-21T09:40:20.393Z,12.70
2023-03-21T09:42:47.058Z,12.70
2023-03-21T09:45:14.194Z,12.60
2023-03-21T09:47:49.661Z,12.50
2023-03-21T09:50:17.527Z,12.50
2023-03-21T09:52:48.045Z,12.50
2023-03-21T09:55:20.134Z,12.60
2023-03-21T09:57:47.650Z,12.70
2023-03-21T10:00:19.237Z,12.70
2023-03-21T10:02:47.052Z,12.90
2023-03-21T10:05:14.193Z,13.00
2023-03-21T10:07:42.219Z,13.10
2023-03-21T10:10:09.185Z,13.20
2023-03-21T10:12:35.797Z,13.30
2023-03-21T10:15:05.337Z,13.30
2023-03-21T10:17:38.208Z,13.30
2023-03-21T10:20:11.990Z,13.10
2023-03-21T10:22:38.777Z,13.00
2023-03-21T10:25:05.373Z,13.00
2023-03-21T10:27:33.477Z,12.90
2023-03-21T10:30:01.060Z,12.80
2023-03-21T10:32:28.084Z,12.80
2023-03-21T10:35:04.055Z,12.70
2023-03-21T10:37:36.391Z,12.60
2023-03-21T10:40:06.310Z,12.60
2023-03-21T10:42:33.918Z,12.70
2023-03-21T10:45:00.833Z,12.80
2023-03-21T10:47:27.707Z,13.00
2023-03-21T10:50:07.186Z,13.10
2023-03-21T10:52:35.034Z,13.20
2023-03-21T10:55:12.107Z,13.20
2023-03-21T10:57:45.426Z,13.10
2023-03-21T11:00:17.100Z,13.00
2023-03-21T11:02:43.773Z,13.00
2023-03-21T11:05:10.394Z,13.00
2023-03-21T11:07:37.690Z,12.90
2023-03-21T11:10:04.265Z,12.90
2023-03-21T11:12:31.104Z,12.90
2023-03-21T11:14:57.719Z,12.90
2023-03-21T11:17:24.373Z,12.90
2023-03-21T11:19:50.978Z,12.90
2023-03-21T11:22:17.669Z,13.10
2023-03-21T11:24:44.294Z,13.20
2023-03-21T11:27:11.090Z,13.50
2023-03-21T11:29:38.930Z,13.70
2023-03-21T11:32:05.597Z,14.00
2023-03-21T11:34:32.490Z,14.30
2023-03-21T11:36:59.223Z,14.30
2023-03-21T11:39:26.003Z,14.40
2023-03-21T11:41:52.772Z,14.40
2023-03-21T11:44:19.367Z,14.30
2023-03-21T11:46:45.990Z,14.20
2023-03-21T11:49:12.741Z,14.40
2023-03-21T11:51:39.438Z,14.40
2023-03-21T11:54:06.658Z,14.30
2023-03-21T11:56:33.386Z,14.30
2023-03-21T11:59:01.819Z,14.00
2023-03-21T12:01:29.024Z,13.90
2023-03-21T12:03:56.164Z,13.80
2023-03-21T12:06:22.796Z,13.80
2023-03-21T12:08:49.551Z,13.60
2023-03-21T12:11:16.649Z,13.50
2023-03-21T12:13:43.306Z,13.40
2023-03-21T12:16:09.989Z,13.40
2023-03-21T12:18:36.749Z,13.40
2023-03-21T12:21:03.380Z,13.30
2023-03-21T12:23:30.092Z,13.20
2023-03-21T12:25:57.914Z,13.10
2023-03-21T12:28:32.738Z,13.10
2023-03-21T12:30:59.912Z,13.20
2023-03-21T12:33:26.633Z,13.30
2023-03-21T12:35:53.323Z,13.30
2023-03-21T12:38:19.955Z,13.40
2023-03-21T12:40:46.583Z,13.30
2023-03-21T12:43:13.192Z,13.30
2023-03-21T12:45:47.228Z,13.20
2023-03-21T12:48:14.172Z,13.30
2023-03-21T12:50:44.117Z,13.20
2023-03-21T12:53:10.915Z,13.20
2023-03-21T12:55:43.730Z,13.30
2023-03-21T12:58:12.927Z,13.20
2023-03-21T13:00:43.084Z,13.20
2023-03-21T13:03:10.094Z,13.30
2023-03-21T13:05:39.492Z,13.40
2023-03-21T13:08:06.408Z,13.30
2023-03-21T13:10:33.000Z,13.40
2023-03-21T13:12:59.636Z,13.50
2023-03-21T13:15:26.331Z,13.50
2023-03-21T13:17:53.001Z,13.40
2023-03-21T13:20:20.104Z,13.50
2023-03-21T13:22:46.769Z,13.40
2023-03-21T13:25:13.386Z,13.50
2023-03-21T13:27:40.045Z,13.60
2023-03-21T13:30:06.803Z,13.60
2023-03-21T13:32:33.748Z,13.80
2023-03-21T13:35:00.450Z,13.80
2023-03-21T13:37:27.304Z,13.90
2023-03-21T13:39:54.083Z,13.90
2023-03-21T13:42:25.726Z,13.90
2023-03-21T13:44:57.735Z,13.80
2023-03-21T13:47:26.500Z,13.90
2023-03-21T13:49:53.187Z,13.90
2023-03-21T13:52:23.260Z,13.90
2023-03-21T13:54:58.600Z,13.90
2023-03-21T13:57:25.738Z,14.00
2023-03-21T13:59:52.571Z,14.10
2023-03-21T14:02:28.104Z,14.10
2023-03-21T14:05:05.453Z,14.30
2023-03-21T14:07:33.201Z,14.50
2023-03-21T14:10:00.010Z,14.70
2023-03-21T14:12:26.996Z,14.60
2023-03-21T14:14:54.177Z,14.70
2023-03-21T14:20:24.418Z,14.70
2023-03-21T14:22:51.257Z,15.00
2023-03-21T14:25:17.900Z,15.20
2023-03-21T14:27:44.823Z,15.20
2023-03-21T14:30:11.450Z,15.10
2023-03-21T14:32:38.069Z,15.20
2023-03-21T14:35:04.656Z,15.30
2023-03-21T14:37:32.522Z,15.00
2023-03-21T14:40:00.492Z,14.70
2023-03-21T14:42:27.287Z,15.00
2023-03-21T14:44:56.544Z,15.00
2023-03-21T14:47:25.560Z,14.90
2023-03-21T14:49:52.183Z,14.80
2023-03-21T14:52:19.065Z,14.80
2023-03-21T14:54:45.670Z,14.70
2023-03-21T14:57:33.391Z,14.70
2023-03-21T15:00:00.218Z,14.60
2023-03-21T15:02:26.881Z,14.40
2023-03-21T15:04:53.689Z,14.50
2023-03-21T15:07:40.034Z,14.80
2023-03-21T15:10:07.058Z,15.10
2023-03-21T15:12:33.757Z,15.30
2023-03-21T15:15:01.372Z,15.70
2023-03-21T15:17:27.975Z,15.90
2023-03-21T15:19:54.569Z,15.70
2023-03-21T15:22:21.710Z,15.50
2023-03-21T15:24:48.597Z,15.40
2023-03-21T15:27:17.462Z,15.70
2023-03-21T15:29:44.092Z,16.00
2023-03-21T15:32:10.970Z,16.10
2023-03-21T15:34:37.674Z,16.10
2023-03-21T15:37:05.592Z,16.30
2023-03-21T15:39:32.283Z,16.50
2023-03-21T15:41:58.931Z,16.60
2023-03-21T15:44:25.629Z,16.60
2023-03-21T15:46:53.444Z,16.90
2023-03-21T15:49:21.071Z,17.20
2023-03-21T15:51:47.692Z,17.30
2023-03-21T15:54:16.186Z,16.80
2023-03-21T15:56:46.032Z,16.70
2023-03-21T15:59:12.829Z,16.60
2023-03-21T16:01:39.715Z,16.40
2023-03-21T16:04:06.395Z,16.40
2023-03-21T16:06:36.492Z,16.70
2023-03-21T16:09:03.540Z,16.80
2023-03-21T16:11:31.786Z,16.90
2023-03-21T16:14:02.022Z,17.20
2023-03-21T16:16:30.039Z,17.10
2023-03-21T16:18:59.865Z,16.80
2023-03-21T16:21:26.823Z,16.70
2023-03-21T16:23:57.837Z,16.60
2023-03-21T16:26:28.185Z,15.90
2023-03-21T16:28:56.813Z,15.30
2023-03-21T16:31:32.689Z,14.70
2023-03-21T16:34:12.770Z,14.60
2023-03-21T16:40:45.776Z,14.40
2023-03-21T16:43:14.641Z,14.10
2023-03-21T16:48:55.229Z,13.90
2023-03-21T16:53:48.583Z,13.80
2023-03-21T16:56:16.611Z,13.70
2023-03-21T16:58:49.478Z,13.60
2023-03-21T17:01:16.381Z,13.60
2023-03-21T17:09:59.140Z,13.30
2023-03-21T17:12:28.960Z,13.30
2023-03-21T17:14:55.633Z,13.10
2023-03-21T17:17:41.527Z,13.10
2023-03-21T17:20:08.176Z,13.00
2023-03-21T17:22:34.823Z,13.00
2023-03-21T17:25:03.236Z,12.90
2023-03-21T17:30:33.793Z,12.80
2023-03-21T17:33:03.086Z,12.70
2023-03-21T17:35:30.283Z,12.70
2023-03-21T17:37:58.559Z,12.70
2023-03-21T17:40:25.294Z,12.60
2023-03-21T17:42:52.004Z,12.60
2023-03-21T17:45:18.640Z,12.50
2023-03-21T17:47:45.726Z,12.50
2023-03-21T17:50:12.446Z,12.40
2023-03-21T17:52:39.062Z,12.40
2023-03-21T17:55:05.670Z,12.30
2023-03-21T17:57:33.463Z,12.20
2023-03-21T18:00:00.491Z,12.20
2023-03-21T18:02:27.087Z,12.10
2023-03-21T18:04:53.698Z,12.10
2023-03-21T18:07:46.160Z,12.00
2023-03-21T18:10:08.019Z,11.90
2023-03-21T18:12:34.642Z,11.80
2023-03-21T18:15:02.193Z,11.80
2023-03-21T18:17:30.023Z,11.70
2023-03-21T18:19:57.220Z,11.70
2023-03-21T18:22:24.247Z,11.60
2023-03-21T18:24:51.081Z,11.60
2023-03-21T18:27:19.041Z,11.50
2023-03-21T18:32:32.841Z,11.40
2023-03-21T18:35:02.787Z,11.40
2023-03-21T18:37:49.613Z,11.30
2023-03-21T18:40:22.070Z,11.30
2023-03-21T18:43:41.362Z,11.30
2023-03-21T18:45:35.732Z,11.20
2023-03-21T18:48:02.893Z,11.20
2023-03-21T18:50:29.572Z,11.20
2023-03-21T18:52:58.246Z,11.20
2023-03-21T18:55:44.206Z,11.20
2023-03-21T18:58:20.353Z,11.10
2023-03-21T19:00:50.628Z,11.20
2023-03-21T19:03:29.877Z,11.10
2023-03-21T19:06:37.135Z,11.10
2023-03-21T19:09:08.408Z,11.10
2023-03-21T19:11:58.179Z,11.20
2023-03-21T19:14:24.841Z,11.20
2023-03-21T19:19:46.880Z,11.20
2023-03-21T19:22:13.633Z,11.20
2023-03-21T19:24:40.602Z,11.20
2023-03-21T19:27:07.594Z,11.10
2023-03-21T19:29:34.305Z,11.00
2023-03-21T19:32:01.022Z,10.90
2023-03-21T19:34:29.356Z,10.90
2023-03-21T19:36:57.570Z,10.80
2023-03-21T19:39:25.061Z,10.70
2023-03-21T19:41:51.732Z,10.70
2023-03-21T19:44:21.722Z,10.60
2023-03-21T19:46:51.651Z,10.60
2023-03-21T19:49:22.214Z,10.50
2023-03-21T19:51:49.035Z,10.50
2023-03-21T19:54:17.389Z,10.40
2023-03-21T19:56:47.527Z,10.40
2023-03-21T19:59:14.798Z,10.40
2023-03-21T20:01:41.904Z,10.40
2023-03-21T20:04:09.211Z,10.30
2023-03-21T20:06:38.532Z,10.30
2023-03-21T20:09:47.241Z,10.30
2023-03-21T20:11:53.329Z,10.30
2023-03-21T20:14:20.170Z,10.20
2023-03-21T20:17:06.910Z,10.20
2023-03-21T20:19:33.559Z,10.20
2023-03-21T20:22:02.709Z,10.20
2023-03-21T20:24:29.497Z,10.10
2023-03-21T20:26:58.293Z,10.10
2023-03-21T20:32:11.707Z,10.10
2023-03-21T20:34:38.438Z,10.10
2023-03-21T20:39:53.904Z,10.10
2023-03-21T20:42:20.542Z,10.10
2023-03-21T20:45:02.664Z,10.10
2023-03-21T20:47:53.476Z,10.10
2023-03-21T20:50:22.097Z,10.10
2023-03-21T20:53:05.611Z,10.10
2023-03-21T20:55:34.291Z,10.10
2023-03-21T20:58:02.216Z,10.10
2023-03-21T21:00:29.436Z,10.10
2023-03-21T21:02:57.732Z,10.10
2023-03-21T21:05:30.633Z,10.10
2023-03-21T21:07:58.958Z,10.10
2023-03-21T21:10:26.237Z,10.10
2023-03-21T21:12:52.877Z,10.10
2023-03-21T21:15:19.631Z,10.10
2023-03-21T21:18:05.391Z,10.10
2023-03-21T21:20:33.670Z,10.10
2023-03-21T21:23:00.965Z,10.20
2023-03-21T21:25:28.946Z,10.20
2023-03-21T21:27:55.593Z,10.20
2023-03-21T21:30:22.563Z,10.20
2023-03-21T21:32:49.541Z,10.20
2023-03-21T21:35:17.820Z,10.20
2023-03-21T21:37:45.677Z,10.20
2023-03-21T21:40:20.242Z,10.30
2023-03-21T21:42:46.886Z,10.30
2023-03-21T21:45:13.540Z,10.30
2023-03-21T21:47:41.393Z,10.30
2023-03-21T21:50:08.166Z,10.40
2023-03-21T21:52:34.823Z,10.40
2023-03-21T21:55:02.017Z,10.40
2023-03-21T21:57:47.705Z,10.40
2023-03-21T22:00:14.492Z,10.40
2023-03-21T22:02:41.432Z,10.40
2023-03-21T22:05:08.922Z,10.50
2023-03-21T22:07:38.004Z,10.50
2023-03-21T22:10:04.602Z,10.50
2023-03-21T22:12:31.308Z,10.50
2023-03-21T22:14:57.890Z,10.60
2023-03-21T22:17:27.992Z,10.50
2023-03-21T22:20:05.126Z,10.60
2023-03-21T22:22:32.622Z,10.60
2023-03-21T22:24:59.234Z,10.60
2023-03-21T22:27:27.122Z,10.60
2023-03-21T22:29:53.758Z,10.60
2023-03-21T22:32:20.478Z,10.60
2023-03-21T22:34:47.078Z,10.60
2023-03-21T22:37:14.773Z,10.60
2023-03-21T22:39:41.393Z,10.70
2023-03-21T22:42:08.003Z,10.70
2023-03-21T22:44:35.044Z,10.70
2023-03-21T22:47:03.152Z,10.70
2023-03-21T22:49:29.708Z,10.70
2023-03-21T22:51:56.325Z,10.70
2023-03-21T22:54:22.943Z,10.70
2023-03-21T22:56:50.747Z,10.70
2023-03-21T22:59:17.396Z,10.70
2023-03-21T23:01:44.041Z,10.70
2023-03-21T23:04:10.918Z,10.80
2023-03-21T23:06:37.995Z,10.80
2023-03-21T23:09:04.579Z,10.80
2023-03-21T23:11:31.466Z,10.80
2023-03-21T23:14:07.236Z,10.80
2023-03-21T23:16:38.695Z,10.90
2023-03-21T23:19:05.375Z,10.90
2023-03-21T23:21:34.500Z,10.90
2023-03-21T23:24:01.116Z,10.90
2023-03-21T23:26:27.998Z,10.90
2023-03-21T23:28:54.806Z,10.90
2023-03-21T23:31:21.510Z,10.90
2023-03-21T23:33:48.282Z,10.90
2023-03-21T23:36:15.096Z,10.90
2023-03-21T23:38:41.740Z,10.90
2023-03-21T23:41:08.387Z,10.90
2023-03-21T23:43:35.041Z,11.00
2023-03-21T23:46:01.955Z,11.00
2023-03-21T23:48:28.897Z,11.00
2023-03-21T23:50:55.556Z,11.00
2023-03-21T23:53:22.542Z,11.00
2023-03-21T23:55:52.045Z,11.00
2023-03-21T23:58:18.712Z,11.00
